sensor_id;sensor_type;location;lat;lon;timestamp;P1;durP1;ratioP1;P2;durP2;ratioP2
15142;SDS011;7672;50.834;6.286;2023-06-19T00:01:28;5.88;;;5.35;;
15142;SDS011;7672;50.834;6.286;2023-06-19T00:03:55;6.85;;;5.07;;
15142;SDS011;7672;50.834;6.286;2023-06-19T00:06:22;6.25;;;5.07;;
15142;SDS011;7672;50.834;6.286;2023-06-19T00:08:50;5.93;;;5.05;;
15142;SDS011;7672;50.834;6.286;2023-06-19T00:11:18;5.78;;;5.20;;
15142;SDS011;7672;50.834;6.286;2023-06-19T00:13:45;5.55;;;5.05;;
15142;SDS011;7672;50.834;6.286;2023-06-19T00:16:12;5.88;;;5.38;;
15142;SDS011;7672;50.834;6.286;2023-06-19T00:18:39;5.43;;;5.03;;
15142;SDS011;7672;50.834;6.286;2023-06-19T00:21:07;5.68;;;5.10;;
15142;SDS011;7672;50.834;6.286;2023-06-19T00:23:34;6.00;;;5.38;;
15142;SDS011;7672;50.834;6.286;2023-06-19T00:26:01;5.65;;;5.25;;
15142;SDS011;7672;50.834;6.286;2023-06-19T00:28:32;5.45;;;4.97;;
15142;SDS011;7672;50.834;6.286;2023-06-19T00:30:59;5.20;;;4.80;;
15142;SDS011;7672;50.834;6.286;2023-06-19T00:33:26;4.95;;;4.50;;
15142;SDS011;7672;50.834;6.286;2023-06-19T00:35:55;5.47;;;5.07;;
15142;SDS011;7672;50.834;6.286;2023-06-19T00:38:23;6.25;;;5.32;;
15142;SDS011;7672;50.834;6.286;2023-06-19T00:40:50;5.80;;;5.32;;
15142;SDS011;7672;50.834;6.286;2023-06-19T00:43:18;5.70;;;5.20;;
15142;SDS011;7672;50.834;6.286;2023-06-19T00:45:45;5.72;;;5.32;;
15142;SDS011;7672;50.834;6.286;2023-06-19T00:48:12;5.63;;;5.22;;
15142;SDS011;7672;50.834;6.286;2023-06-19T00:50:39;5.63;;;5.22;;
15142;SDS011;7672;50.834;6.286;2023-06-19T00:53:06;5.60;;;5.20;;
15142;SDS011;7672;50.834;6.286;2023-06-19T00:55:34;5.88;;;5.38;;
15142;SDS011;7672;50.834;6.286;2023-06-19T00:58:01;6.35;;;5.75;;
15142;SDS011;7672;50.834;6.286;2023-06-19T01:00:29;5.90;;;5.40;;
15142;SDS011;7672;50.834;6.286;2023-06-19T01:02:56;6.95;;;5.45;;
15142;SDS011;7672;50.834;6.286;2023-06-19T01:05:27;8.05;;;5.80;;
15142;SDS011;7672;50.834;6.286;2023-06-19T01:10:52;6.22;;;5.65;;
15142;SDS011;7672;50.834;6.286;2023-06-19T01:13:37;5.88;;;5.47;;
15142;SDS011;7672;50.834;6.286;2023-06-19T01:16:17;5.70;;;5.20;;
15142;SDS011;7672;50.834;6.286;2023-06-19T01:18:45;5.75;;;5.25;;
15142;SDS011;7672;50.834;6.286;2023-06-19T01:21:14;5.10;;;4.70;;
15142;SDS011;7672;50.834;6.286;2023-06-19T01:23:44;5.78;;;5.28;;
15142;SDS011;7672;50.834;6.286;2023-06-19T01:26:11;6.53;;;5.78;;
15142;SDS011;7672;50.834;6.286;2023-06-19T01:28:40;5.85;;;5.35;;
15142;SDS011;7672;50.834;6.286;2023-06-19T01:31:15;6.15;;;4.97;;
15142;SDS011;7672;50.834;6.286;2023-06-19T01:33:47;6.25;;;5.75;;
15142;SDS011;7672;50.834;6.286;2023-06-19T01:36:19;6.65;;;6.05;;
15142;SDS011;7672;50.834;6.286;2023-06-19T01:38:48;6.32;;;5.72;;
15142;SDS011;7672;50.834;6.286;2023-06-19T01:41:17;6.43;;;5.85;;
15142;SDS011;7672;50.834;6.286;2023-06-19T01:43:47;5.97;;;5.57;;
15142;SDS011;7672;50.834;6.286;2023-06-19T01:46:17;6.38;;;5.88;;
15142;SDS011;7672;50.834;6.286;2023-06-19T01:48:45;6.35;;;5.85;;
15142;SDS011;7672;50.834;6.286;2023-06-19T01:51:12;5.80;;;5.38;;
15142;SDS011;7672;50.834;6.286;2023-06-19T01:53:39;6.38;;;5.88;;
15142;SDS011;7672;50.834;6.286;2023-06-19T01:56:06;5.90;;;5.40;;
15142;SDS011;7672;50.834;6.286;2023-06-19T01:58:33;6.38;;;5.60;;
15142;SDS011;7672;50.834;6.286;2023-06-19T02:01:00;5.93;;;5.32;;
15142;SDS011;7672;50.834;6.286;2023-06-19T02:03:28;6.40;;;5.25;;
15142;SDS011;7672;50.834;6.286;2023-06-19T02:05:55;6.53;;;5.93;;
15142;SDS011;7672;50.834;6.286;2023-06-19T02:08:22;6.28;;;5.70;;
15142;SDS011;7672;50.834;6.286;2023-06-19T02:10:49;6.15;;;5.65;;
15142;SDS011;7672;50.834;6.286;2023-06-19T02:13:16;5.85;;;5.35;;
15142;SDS011;7672;50.834;6.286;2023-06-19T02:15:43;5.90;;;5.40;;
15142;SDS011;7672;50.834;6.286;2023-06-19T02:18:10;5.78;;;5.28;;
15142;SDS011;7672;50.834;6.286;2023-06-19T02:20:37;5.68;;;5.18;;
15142;SDS011;7672;50.834;6.286;2023-06-19T02:23:04;6.22;;;5.72;;
15142;SDS011;7672;50.834;6.286;2023-06-19T02:25:31;5.90;;;5.40;;
15142;SDS011;7672;50.834;6.286;2023-06-19T02:27:58;6.20;;;5.43;;
15142;SDS011;7672;50.834;6.286;2023-06-19T02:30:25;5.18;;;4.68;;
15142;SDS011;7672;50.834;6.286;2023-06-19T02:32:52;5.45;;;5.03;;
15142;SDS011;7672;50.834;6.286;2023-06-19T02:35:19;5.22;;;4.82;;
15142;SDS011;7672;50.834;6.286;2023-06-19T02:37:47;5.60;;;4.93;;
15142;SDS011;7672;50.834;6.286;2023-06-19T02:40:14;5.80;;;5.30;;
15142;SDS011;7672;50.834;6.286;2023-06-19T02:42:41;5.35;;;4.95;;
15142;SDS011;7672;50.834;6.286;2023-06-19T02:45:08;5.20;;;4.70;;
15142;SDS011;7672;50.834;6.286;2023-06-19T02:47:35;8.60;;;4.63;;
15142;SDS011;7672;50.834;6.286;2023-06-19T02:50:04;5.15;;;4.75;;
15142;SDS011;7672;50.834;6.286;2023-06-19T02:52:31;4.82;;;4.43;;
15142;SDS011;7672;50.834;6.286;2023-06-19T02:54:59;5.47;;;4.30;;
15142;SDS011;7672;50.834;6.286;2023-06-19T02:57:26;4.72;;;4.32;;
15142;SDS011;7672;50.834;6.286;2023-06-19T02:59:53;4.50;;;4.10;;
15142;SDS011;7672;50.834;6.286;2023-06-19T03:02:21;5.72;;;4.53;;
15142;SDS011;7672;50.834;6.286;2023-06-19T03:04:48;6.20;;;4.40;;
15142;SDS011;7672;50.834;6.286;2023-06-19T03:07:16;3.97;;;3.67;;
15142;SDS011;7672;50.834;6.286;2023-06-19T03:09:43;4.10;;;3.80;;
15142;SDS011;7672;50.834;6.286;2023-06-19T03:12:10;3.85;;;3.55;;
15142;SDS011;7672;50.834;6.286;2023-06-19T03:14:37;4.40;;;3.80;;
15142;SDS011;7672;50.834;6.286;2023-06-19T03:17:05;4.05;;;3.65;;
15142;SDS011;7672;50.834;6.286;2023-06-19T03:19:32;4.68;;;4.10;;
15142;SDS011;7672;50.834;6.286;2023-06-19T03:22:00;3.95;;;3.58;;
15142;SDS011;7672;50.834;6.286;2023-06-19T03:24:28;3.97;;;3.67;;
15142;SDS011;7672;50.834;6.286;2023-06-19T03:27:08;5.03;;;4.25;;
15142;SDS011;7672;50.834;6.286;2023-06-19T03:29:35;3.65;;;3.30;;
15142;SDS011;7672;50.834;6.286;2023-06-19T03:32:05;3.75;;;3.40;;
15142;SDS011;7672;50.834;6.286;2023-06-19T03:34:34;4.03;;;3.72;;
15142;SDS011;7672;50.834;6.286;2023-06-19T03:37:05;4.78;;;3.38;;
15142;SDS011;7672;50.834;6.286;2023-06-19T03:39:33;3.65;;;3.35;;
15142;SDS011;7672;50.834;6.286;2023-06-19T03:42:05;3.80;;;3.50;;
15142;SDS011;7672;50.834;6.286;2023-06-19T03:44:33;3.78;;;3.47;;
15142;SDS011;7672;50.834;6.286;2023-06-19T03:47:00;4.85;;;4.22;;
15142;SDS011;7672;50.834;6.286;2023-06-19T03:49:27;3.67;;;3.38;;
15142;SDS011;7672;50.834;6.286;2023-06-19T03:51:55;4.13;;;3.67;;
15142;SDS011;7672;50.834;6.286;2023-06-19T03:54:22;4.10;;;3.80;;
15142;SDS011;7672;50.834;6.286;2023-06-19T03:56:49;3.60;;;3.30;;
15142;SDS011;7672;50.834;6.286;2023-06-19T03:59:17;5.65;;;3.50;;
15142;SDS011;7672;50.834;6.286;2023-06-19T04:01:44;4.32;;;3.70;;
15142;SDS011;7672;50.834;6.286;2023-06-19T04:04:11;4.20;;;3.50;;
15142;SDS011;7672;50.834;6.286;2023-06-19T04:06:39;3.75;;;3.45;;
15142;SDS011;7672;50.834;6.286;2023-06-19T04:09:06;4.35;;;3.88;;
15142;SDS011;7672;50.834;6.286;2023-06-19T04:11:33;3.67;;;3.33;;
15142;SDS011;7672;50.834;6.286;2023-06-19T04:14:01;3.13;;;2.92;;
15142;SDS011;7672;50.834;6.286;2023-06-19T04:16:28;4.05;;;3.50;;
15142;SDS011;7672;50.834;6.286;2023-06-19T04:18:56;4.00;;;3.70;;
15142;SDS011;7672;50.834;6.286;2023-06-19T04:21:23;5.18;;;3.42;;
15142;SDS011;7672;50.834;6.286;2023-06-19T04:23:51;3.70;;;3.40;;
15142;SDS011;7672;50.834;6.286;2023-06-19T04:26:18;3.50;;;3.20;;
15142;SDS011;7672;50.834;6.286;2023-06-19T04:28:47;3.50;;;3.20;;
15142;SDS011;7672;50.834;6.286;2023-06-19T04:31:14;3.67;;;2.80;;
15142;SDS011;7672;50.834;6.286;2023-06-19T04:33:45;5.47;;;3.40;;
15142;SDS011;7672;50.834;6.286;2023-06-19T04:36:12;4.22;;;3.50;;
15142;SDS011;7672;50.834;6.286;2023-06-19T04:38:40;3.80;;;3.28;;
15142;SDS011;7672;50.834;6.286;2023-06-19T04:41:08;4.10;;;3.70;;
15142;SDS011;7672;50.834;6.286;2023-06-19T04:43:35;3.78;;;3.47;;
15142;SDS011;7672;50.834;6.286;2023-06-19T04:46:02;3.25;;;2.92;;
15142;SDS011;7672;50.834;6.286;2023-06-19T04:48:30;3.35;;;3.08;;
15142;SDS011;7672;50.834;6.286;2023-06-19T04:50:57;3.83;;;3.53;;
15142;SDS011;7672;50.834;6.286;2023-06-19T04:53:27;6.75;;;3.85;;
15142;SDS011;7672;50.834;6.286;2023-06-19T04:55:54;3.47;;;3.20;;
15142;SDS011;7672;50.834;6.286;2023-06-19T04:58:21;3.13;;;2.83;;
15142;SDS011;7672;50.834;6.286;2023-06-19T05:00:48;3.13;;;2.80;;
15142;SDS011;7672;50.834;6.286;2023-06-19T05:03:19;4.32;;;3.70;;
15142;SDS011;7672;50.834;6.286;2023-06-19T05:05:46;3.17;;;2.85;;
15142;SDS011;7672;50.834;6.286;2023-06-19T05:08:13;2.97;;;2.78;;
15142;SDS011;7672;50.834;6.286;2023-06-19T05:10:40;2.65;;;2.45;;
15142;SDS011;7672;50.834;6.286;2023-06-19T05:13:10;4.13;;;2.30;;
15142;SDS011;7672;50.834;6.286;2023-06-19T05:15:37;3.13;;;2.92;;
15142;SDS011;7672;50.834;6.286;2023-06-19T05:18:05;3.55;;;2.50;;
15142;SDS011;7672;50.834;6.286;2023-06-19T05:20:32;3.10;;;2.88;;
15142;SDS011;7672;50.834;6.286;2023-06-19T05:22:59;2.95;;;2.70;;
15142;SDS011;7672;50.834;6.286;2023-06-19T05:25:26;3.22;;;2.92;;
15142;SDS011;7672;50.834;6.286;2023-06-19T05:27:54;3.08;;;2.80;;
15142;SDS011;7672;50.834;6.286;2023-06-19T05:30:21;2.58;;;2.38;;
15142;SDS011;7672;50.834;6.286;2023-06-19T05:32:48;2.90;;;2.60;;
15142;SDS011;7672;50.834;6.286;2023-06-19T05:35:15;3.08;;;2.75;;
15142;SDS011;7672;50.834;6.286;2023-06-19T05:37:42;3.17;;;2.90;;
15142;SDS011;7672;50.834;6.286;2023-06-19T05:40:10;2.90;;;2.70;;
15142;SDS011;7672;50.834;6.286;2023-06-19T05:42:37;2.72;;;2.42;;
15142;SDS011;7672;50.834;6.286;2023-06-19T05:45:06;4.25;;;2.42;;
15142;SDS011;7672;50.834;6.286;2023-06-19T05:47:33;3.85;;;2.47;;
15142;SDS011;7672;50.834;6.286;2023-06-19T05:50:00;2.75;;;2.55;;
15142;SDS011;7672;50.834;6.286;2023-06-19T05:52:28;4.90;;;2.40;;
15142;SDS011;7672;50.834;6.286;2023-06-19T05:54:55;2.55;;;2.22;;
15142;SDS011;7672;50.834;6.286;2023-06-19T05:57:24;2.80;;;2.60;;
15142;SDS011;7672;50.834;6.286;2023-06-19T05:59:51;2.67;;;2.40;;
15142;SDS011;7672;50.834;6.286;2023-06-19T06:02:19;4.55;;;2.40;;
15142;SDS011;7672;50.834;6.286;2023-06-19T06:04:47;2.42;;;2.22;;
15142;SDS011;7672;50.834;6.286;2023-06-19T06:07:14;2.53;;;2.33;;
15142;SDS011;7672;50.834;6.286;2023-06-19T06:09:41;3.10;;;2.40;;
15142;SDS011;7672;50.834;6.286;2023-06-19T06:12:08;2.63;;;2.15;;
15142;SDS011;7672;50.834;6.286;2023-06-19T06:14:36;2.80;;;2.60;;
15142;SDS011;7672;50.834;6.286;2023-06-19T06:17:03;3.45;;;2.50;;
15142;SDS011;7672;50.834;6.286;2023-06-19T06:19:31;3.00;;;2.67;;
15142;SDS011;7672;50.834;6.286;2023-06-19T06:21:58;4.63;;;2.67;;
15142;SDS011;7672;50.834;6.286;2023-06-19T06:24:25;2.78;;;2.58;;
15142;SDS011;7672;50.834;6.286;2023-06-19T06:26:53;2.63;;;2.50;;
15142;SDS011;7672;50.834;6.286;2023-06-19T06:29:21;2.90;;;2.70;;
15142;SDS011;7672;50.834;6.286;2023-06-19T06:31:48;2.83;;;2.63;;
15142;SDS011;7672;50.834;6.286;2023-06-19T06:34:18;3.90;;;2.63;;
15142;SDS011;7672;50.834;6.286;2023-06-19T06:36:45;2.63;;;2.42;;
15142;SDS011;7672;50.834;6.286;2023-06-19T06:39:31;3.33;;;3.03;;
15142;SDS011;7672;50.834;6.286;2023-06-19T06:41:58;3.33;;;2.63;;
15142;SDS011;7672;50.834;6.286;2023-06-19T06:44:25;2.70;;;2.50;;
15142;SDS011;7672;50.834;6.286;2023-06-19T06:46:52;3.40;;;2.90;;
15142;SDS011;7672;50.834;6.286;2023-06-19T06:49:19;2.95;;;2.72;;
15142;SDS011;7672;50.834;6.286;2023-06-19T06:51:46;3.85;;;2.67;;
15142;SDS011;7672;50.834;6.286;2023-06-19T06:54:13;2.92;;;2.72;;
15142;SDS011;7672;50.834;6.286;2023-06-19T06:56:41;3.55;;;3.25;;
15142;SDS011;7672;50.834;6.286;2023-06-19T06:59:08;3.20;;;3.00;;
15142;SDS011;7672;50.834;6.286;2023-06-19T07:01:35;3.42;;;3.13;;
15142;SDS011;7672;50.834;6.286;2023-06-19T07:04:02;2.72;;;2.53;;
15142;SDS011;7672;50.834;6.286;2023-06-19T07:06:29;3.30;;;2.90;;
15142;SDS011;7672;50.834;6.286;2023-06-19T07:08:56;3.50;;;3.15;;
15142;SDS011;7672;50.834;6.286;2023-06-19T07:11:23;3.65;;;3.33;;
15142;SDS011;7672;50.834;6.286;2023-06-19T07:13:50;3.53;;;3.20;;
15142;SDS011;7672;50.834;6.286;2023-06-19T07:16:18;3.63;;;3.15;;
15142;SDS011;7672;50.834;6.286;2023-06-19T07:18:44;3.40;;;3.17;;
15142;SDS011;7672;50.834;6.286;2023-06-19T07:21:12;3.33;;;3.13;;
15142;SDS011;7672;50.834;6.286;2023-06-19T07:23:41;4.13;;;3.20;;
15142;SDS011;7672;50.834;6.286;2023-06-19T07:26:12;3.40;;;3.20;;
15142;SDS011;7672;50.834;6.286;2023-06-19T07:28:39;5.53;;;3.35;;
15142;SDS011;7672;50.834;6.286;2023-06-19T07:31:07;3.70;;;3.40;;
15142;SDS011;7672;50.834;6.286;2023-06-19T07:33:34;4.25;;;3.85;;
15142;SDS011;7672;50.834;6.286;2023-06-19T07:36:01;3.90;;;3.60;;
15142;SDS011;7672;50.834;6.286;2023-06-19T07:38:29;4.20;;;3.60;;
15142;SDS011;7672;50.834;6.286;2023-06-19T07:40:56;4.70;;;3.90;;
15142;SDS011;7672;50.834;6.286;2023-06-19T07:43:23;4.20;;;3.78;;
15142;SDS011;7672;50.834;6.286;2023-06-19T07:45:50;3.70;;;3.40;;
15142;SDS011;7672;50.834;6.286;2023-06-19T07:48:17;4.78;;;3.70;;
15142;SDS011;7672;50.834;6.286;2023-06-19T07:50:44;4.20;;;3.83;;
15142;SDS011;7672;50.834;6.286;2023-06-19T07:53:12;4.35;;;3.97;;
15142;SDS011;7672;50.834;6.286;2023-06-19T07:55:39;6.20;;;3.88;;
15142;SDS011;7672;50.834;6.286;2023-06-19T07:58:07;4.35;;;3.67;;
15142;SDS011;7672;50.834;6.286;2023-06-19T08:00:34;4.22;;;3.85;;
15142;SDS011;7672;50.834;6.286;2023-06-19T08:03:02;7.32;;;5.35;;
15142;SDS011;7672;50.834;6.286;2023-06-19T08:05:29;4.93;;;4.50;;
15142;SDS011;7672;50.834;6.286;2023-06-19T08:07:56;4.43;;;4.00;;
15142;SDS011;7672;50.834;6.286;2023-06-19T08:10:25;4.45;;;4.05;;
15142;SDS011;7672;50.834;6.286;2023-06-19T08:12:52;4.72;;;4.32;;
15142;SDS011;7672;50.834;6.286;2023-06-19T08:15:20;4.88;;;3.58;;
15142;SDS011;7672;50.834;6.286;2023-06-19T08:17:47;4.30;;;3.95;;
15142;SDS011;7672;50.834;6.286;2023-06-19T08:20:14;4.47;;;4.15;;
15142;SDS011;7672;50.834;6.286;2023-06-19T08:22:41;5.50;;;4.95;;
15142;SDS011;7672;50.834;6.286;2023-06-19T08:25:08;4.60;;;4.20;;
15142;SDS011;7672;50.834;6.286;2023-06-19T08:27:36;4.72;;;4.32;;
15142;SDS011;7672;50.834;6.286;2023-06-19T08:30:03;6.72;;;4.55;;
15142;SDS011;7672;50.834;6.286;2023-06-19T08:32:31;4.90;;;4.50;;
15142;SDS011;7672;50.834;6.286;2023-06-19T08:34:58;5.13;;;4.15;;
15142;SDS011;7672;50.834;6.286;2023-06-19T08:37:25;5.30;;;4.30;;
15142;SDS011;7672;50.834;6.286;2023-06-19T08:39:52;4.30;;;4.00;;
15142;SDS011;7672;50.834;6.286;2023-06-19T08:42:19;4.85;;;4.40;;
15142;SDS011;7672;50.834;6.286;2023-06-19T08:44:46;5.32;;;4.00;;
15142;SDS011;7672;50.834;6.286;2023-06-19T08:47:14;4.35;;;4.00;;
15142;SDS011;7672;50.834;6.286;2023-06-19T08:49:41;5.10;;;4.60;;
15142;SDS011;7672;50.834;6.286;2023-06-19T08:52:08;6.32;;;5.72;;
15142;SDS011;7672;50.834;6.286;2023-06-19T08:54:35;5.05;;;4.40;;
15142;SDS011;7672;50.834;6.286;2023-06-19T08:57:10;6.53;;;4.20;;
15142;SDS011;7672;50.834;6.286;2023-06-19T08:59:47;4.22;;;3.83;;
15142;SDS011;7672;50.834;6.286;2023-06-19T09:02:17;4.38;;;3.97;;
15142;SDS011;7672;50.834;6.286;2023-06-19T09:04:44;5.10;;;4.55;;
15142;SDS011;7672;50.834;6.286;2023-06-19T09:07:13;4.95;;;4.55;;
15142;SDS011;7672;50.834;6.286;2023-06-19T09:09:46;4.40;;;4.10;;
15142;SDS011;7672;50.834;6.286;2023-06-19T09:12:13;4.80;;;4.35;;
15142;SDS011;7672;50.834;6.286;2023-06-19T09:14:45;5.53;;;4.07;;
15142;SDS011;7672;50.834;6.286;2023-06-19T09:17:14;4.65;;;4.25;;
15142;SDS011;7672;50.834;6.286;2023-06-19T09:19:51;4.57;;;4.18;;
15142;SDS011;7672;50.834;6.286;2023-06-19T09:22:22;6.57;;;4.35;;
15142;SDS011;7672;50.834;6.286;2023-06-19T09:24:51;4.75;;;4.30;;
15142;SDS011;7672;50.834;6.286;2023-06-19T09:27:19;5.03;;;4.63;;
15142;SDS011;7672;50.834;6.286;2023-06-19T09:29:47;5.60;;;4.43;;
15142;SDS011;7672;50.834;6.286;2023-06-19T09:32:21;4.53;;;4.10;;
15142;SDS011;7672;50.834;6.286;2023-06-19T09:34:53;4.38;;;3.97;;
15142;SDS011;7672;50.834;6.286;2023-06-19T09:37:22;4.75;;;4.35;;
15142;SDS011;7672;50.834;6.286;2023-06-19T09:39:56;5.00;;;4.18;;
15142;SDS011;7672;50.834;6.286;2023-06-19T09:42:37;4.35;;;4.05;;
15142;SDS011;7672;50.834;6.286;2023-06-19T09:45:12;4.68;;;4.25;;
15142;SDS011;7672;50.834;6.286;2023-06-19T09:47:45;4.45;;;4.05;;
15142;SDS011;7672;50.834;6.286;2023-06-19T09:50:16;7.20;;;6.45;;
15142;SDS011;7672;50.834;6.286;2023-06-19T09:52:47;4.60;;;4.20;;
15142;SDS011;7672;50.834;6.286;2023-06-19T09:55:19;6.13;;;4.20;;
15142;SDS011;7672;50.834;6.286;2023-06-19T09:57:47;7.70;;;3.90;;
15142;SDS011;7672;50.834;6.286;2023-06-19T10:00:15;6.13;;;4.25;;
15142;SDS011;7672;50.834;6.286;2023-06-19T10:02:48;10.35;;;5.15;;
15142;SDS011;7672;50.834;6.286;2023-06-19T10:05:16;5.20;;;4.47;;
15142;SDS011;7672;50.834;6.286;2023-06-19T10:07:53;4.75;;;4.35;;
15142;SDS011;7672;50.834;6.286;2023-06-19T10:10:26;4.80;;;4.40;;
15142;SDS011;7672;50.834;6.286;2023-06-19T10:12:59;4.82;;;4.43;;
15142;SDS011;7672;50.834;6.286;2023-06-19T10:15:40;4.53;;;4.22;;
15142;SDS011;7672;50.834;6.286;2023-06-19T10:18:13;5.50;;;4.00;;
15142;SDS011;7672;50.834;6.286;2023-06-19T10:20:45;5.50;;;4.38;;
15142;SDS011;7672;50.834;6.286;2023-06-19T10:23:18;4.95;;;4.40;;
15142;SDS011;7672;50.834;6.286;2023-06-19T10:25:54;4.78;;;4.38;;
15142;SDS011;7672;50.834;6.286;2023-06-19T10:30:55;4.95;;;4.50;;
15142;SDS011;7672;50.834;6.286;2023-06-19T10:33:34;4.63;;;4.22;;
15142;SDS011;7672;50.834;6.286;2023-06-19T10:36:15;4.95;;;4.28;;
15142;SDS011;7672;50.834;6.286;2023-06-19T10:38:45;4.53;;;4.22;;
15142;SDS011;7672;50.834;6.286;2023-06-19T10:41:14;5.00;;;4.28;;
15142;SDS011;7672;50.834;6.286;2023-06-19T10:46:31;4.85;;;4.55;;
15142;SDS011;7672;50.834;6.286;2023-06-19T10:49:02;4.35;;;4.10;;
15142;SDS011;7672;50.834;6.286;2023-06-19T10:51:34;5.10;;;4.70;;
15142;SDS011;7672;50.834;6.286;2023-06-19T10:54:05;4.30;;;3.97;;
15142;SDS011;7672;50.834;6.286;2023-06-19T10:56:33;4.78;;;4.38;;
15142;SDS011;7672;50.834;6.286;2023-06-19T10:59:01;4.70;;;4.35;;
15142;SDS011;7672;50.834;6.286;2023-06-19T11:01:35;5.32;;;4.68;;
15142;SDS011;7672;50.834;6.286;2023-06-19T11:04:14;4.38;;;3.97;;
15142;SDS011;7672;50.834;6.286;2023-06-19T11:06:43;4.68;;;4.38;;
15142;SDS011;7672;50.834;6.286;2023-06-19T11:09:12;4.10;;;3.85;;
15142;SDS011;7672;50.834;6.286;2023-06-19T11:14:09;4.60;;;4.20;;
15142;SDS011;7672;50.834;6.286;2023-06-19T11:16:41;4.90;;;4.38;;
15142;SDS011;7672;50.834;6.286;2023-06-19T11:19:15;4.50;;;4.10;;
15142;SDS011;7672;50.834;6.286;2023-06-19T11:21:50;4.57;;;4.22;;
15142;SDS011;7672;50.834;6.286;2023-06-19T11:24:19;5.65;;;4.55;;
15142;SDS011;7672;50.834;6.286;2023-06-19T11:26:49;4.60;;;4.22;;
15142;SDS011;7672;50.834;6.286;2023-06-19T11:32:12;5.63;;;4.05;;
15142;SDS011;7672;50.834;6.286;2023-06-19T11:34:41;4.13;;;3.83;;
15142;SDS011;7672;50.834;6.286;2023-06-19T11:37:16;4.53;;;4.13;;
15142;SDS011;7672;50.834;6.286;2023-06-19T11:39:45;5.97;;;4.47;;
15142;SDS011;7672;50.834;6.286;2023-06-19T11:42:14;5.45;;;5.05;;
15142;SDS011;7672;50.834;6.286;2023-06-19T11:44:56;5.85;;;4.25;;
15142;SDS011;7672;50.834;6.286;2023-06-19T11:47:33;4.75;;;4.35;;
15142;SDS011;7672;50.834;6.286;2023-06-19T11:50:03;4.20;;;3.90;;
15142;SDS011;7672;50.834;6.286;2023-06-19T11:52:31;7.40;;;4.25;;
15142;SDS011;7672;50.834;6.286;2023-06-19T11:54:58;7.63;;;4.45;;
15142;SDS011;7672;50.834;6.286;2023-06-19T11:57:26;4.53;;;4.15;;
15142;SDS011;7672;50.834;6.286;2023-06-19T11:59:53;4.45;;;4.05;;
15142;SDS011;7672;50.834;6.286;2023-06-19T12:02:22;4.10;;;3.70;;
15142;SDS011;7672;50.834;6.286;2023-06-19T12:04:49;4.32;;;3.92;;
15142;SDS011;7672;50.834;6.286;2023-06-19T12:07:16;3.80;;;3.50;;
15142;SDS011;7672;50.834;6.286;2023-06-19T12:09:43;4.15;;;3.78;;
15142;SDS011;7672;50.834;6.286;2023-06-19T12:12:10;4.50;;;4.20;;
15142;SDS011;7672;50.834;6.286;2023-06-19T12:14:37;5.30;;;4.72;;
15142;SDS011;7672;50.834;6.286;2023-06-19T12:17:06;4.55;;;4.15;;
15142;SDS011;7672;50.834;6.286;2023-06-19T12:19:33;4.43;;;4.13;;
15142;SDS011;7672;50.834;6.286;2023-06-19T12:22:00;5.47;;;4.60;;
15142;SDS011;7672;50.834;6.286;2023-06-19T12:24:27;5.47;;;4.55;;
15142;SDS011;7672;50.834;6.286;2023-06-19T12:26:54;4.20;;;3.90;;
15142;SDS011;7672;50.834;6.286;2023-06-19T12:29:21;4.70;;;4.32;;
15142;SDS011;7672;50.834;6.286;2023-06-19T12:31:48;4.75;;;4.40;;
15142;SDS011;7672;50.834;6.286;2023-06-19T12:34:15;4.85;;;4.40;;
15142;SDS011;7672;50.834;6.286;2023-06-19T12:36:57;6.03;;;4.72;;
15142;SDS011;7672;50.834;6.286;2023-06-19T12:39:24;5.22;;;4.65;;
15142;SDS011;7672;50.834;6.286;2023-06-19T12:41:52;4.60;;;4.20;;
15142;SDS011;7672;50.834;6.286;2023-06-19T12:44:21;4.60;;;4.22;;
15142;SDS011;7672;50.834;6.286;2023-06-19T12:46:49;5.10;;;4.10;;
15142;SDS011;7672;50.834;6.286;2023-06-19T12:49:16;4.88;;;4.38;;
15142;SDS011;7672;50.834;6.286;2023-06-19T12:51:43;5.68;;;4.28;;
15142;SDS011;7672;50.834;6.286;2023-06-19T12:54:10;4.95;;;4.40;;
15142;SDS011;7672;50.834;6.286;2023-06-19T12:56:37;4.43;;;4.10;;
15142;SDS011;7672;50.834;6.286;2023-06-19T12:59:04;4.97;;;3.85;;
15142;SDS011;7672;50.834;6.286;2023-06-19T13:01:31;6.25;;;4.05;;
15142;SDS011;7672;50.834;6.286;2023-06-19T13:03:58;9.27;;;4.90;;
15142;SDS011;7672;50.834;6.286;2023-06-19T13:06:26;5.18;;;4.50;;
15142;SDS011;7672;50.834;6.286;2023-06-19T13:08:53;5.00;;;4.55;;
15142;SDS011;7672;50.834;6.286;2023-06-19T13:11:20;16.58;;;6.13;;
15142;SDS011;7672;50.834;6.286;2023-06-19T13:13:47;4.50;;;4.10;;
15142;SDS011;7672;50.834;6.286;2023-06-19T13:16:15;5.80;;;3.97;;
15142;SDS011;7672;50.834;6.286;2023-06-19T13:18:55;4.43;;;4.03;;
15142;SDS011;7672;50.834;6.286;2023-06-19T13:21:23;5.30;;;3.97;;
15142;SDS011;7672;50.834;6.286;2023-06-19T13:23:50;5.03;;;4.55;;
15142;SDS011;7672;50.834;6.286;2023-06-19T13:26:17;4.28;;;3.97;;
15142;SDS011;7672;50.834;6.286;2023-06-19T13:28:44;4.68;;;4.10;;
15142;SDS011;7672;50.834;6.286;2023-06-19T13:31:11;4.25;;;3.70;;
15142;SDS011;7672;50.834;6.286;2023-06-19T13:33:38;4.55;;;4.15;;
15142;SDS011;7672;50.834;6.286;2023-06-19T13:36:05;5.22;;;4.05;;
15142;SDS011;7672;50.834;6.286;2023-06-19T13:38:33;4.40;;;4.05;;
15142;SDS011;7672;50.834;6.286;2023-06-19T13:41:00;7.03;;;4.05;;
15142;SDS011;7672;50.834;6.286;2023-06-19T13:43:28;4.07;;;3.65;;
15142;SDS011;7672;50.834;6.286;2023-06-19T13:45:56;4.00;;;3.67;;
15142;SDS011;7672;50.834;6.286;2023-06-19T13:48:24;4.32;;;4.03;;
15142;SDS011;7672;50.834;6.286;2023-06-19T13:50:54;4.40;;;4.00;;
15142;SDS011;7672;50.834;6.286;2023-06-19T13:53:22;4.72;;;4.32;;
15142;SDS011;7672;50.834;6.286;2023-06-19T13:55:50;5.03;;;4.63;;
15142;SDS011;7672;50.834;6.286;2023-06-19T13:58:17;4.43;;;4.03;;
15142;SDS011;7672;50.834;6.286;2023-06-19T14:00:44;4.32;;;4.03;;
15142;SDS011;7672;50.834;6.286;2023-06-19T14:03:12;4.35;;;3.95;;
15142;SDS011;7672;50.834;6.286;2023-06-19T14:05:40;5.30;;;4.80;;
15142;SDS011;7672;50.834;6.286;2023-06-19T14:08:07;5.38;;;3.92;;
15142;SDS011;7672;50.834;6.286;2023-06-19T14:10:35;5.18;;;4.38;;
15142;SDS011;7672;50.834;6.286;2023-06-19T14:13:02;5.30;;;4.15;;
15142;SDS011;7672;50.834;6.286;2023-06-19T14:15:29;4.40;;;4.10;;
15142;SDS011;7672;50.834;6.286;2023-06-19T14:17:56;4.47;;;4.07;;
15142;SDS011;7672;50.834;6.286;2023-06-19T14:20:23;4.18;;;3.78;;
15142;SDS011;7672;50.834;6.286;2023-06-19T14:22:51;4.45;;;4.15;;
15142;SDS011;7672;50.834;6.286;2023-06-19T14:25:18;4.82;;;4.43;;
15142;SDS011;7672;50.834;6.286;2023-06-19T14:27:45;4.50;;;3.80;;
15142;SDS011;7672;50.834;6.286;2023-06-19T14:30:12;7.57;;;4.40;;
15142;SDS011;7672;50.834;6.286;2023-06-19T14:32:40;5.30;;;4.22;;
15142;SDS011;7672;50.834;6.286;2023-06-19T14:35:07;4.25;;;3.85;;
15142;SDS011;7672;50.834;6.286;2023-06-19T14:37:34;5.03;;;4.00;;
15142;SDS011;7672;50.834;6.286;2023-06-19T14:40:01;4.65;;;4.20;;
15142;SDS011;7672;50.834;6.286;2023-06-19T14:42:29;6.45;;;4.07;;
15142;SDS011;7672;50.834;6.286;2023-06-19T14:44:56;4.10;;;3.90;;
15142;SDS011;7672;50.834;6.286;2023-06-19T14:47:23;4.03;;;3.72;;
15142;SDS011;7672;50.834;6.286;2023-06-19T14:49:51;4.80;;;3.65;;
15142;SDS011;7672;50.834;6.286;2023-06-19T14:52:18;5.45;;;4.95;;
15142;SDS011;7672;50.834;6.286;2023-06-19T14:54:47;6.10;;;4.40;;
15142;SDS011;7672;50.834;6.286;2023-06-19T14:57:14;5.75;;;4.53;;
15142;SDS011;7672;50.834;6.286;2023-06-19T14:59:41;10.75;;;5.13;;
15142;SDS011;7672;50.834;6.286;2023-06-19T15:02:08;4.47;;;4.07;;
15142;SDS011;7672;50.834;6.286;2023-06-19T15:04:37;4.93;;;4.05;;
15142;SDS011;7672;50.834;6.286;2023-06-19T15:07:18;6.50;;;4.28;;
15142;SDS011;7672;50.834;6.286;2023-06-19T15:09:46;6.38;;;4.40;;
15142;SDS011;7672;50.834;6.286;2023-06-19T15:12:13;5.05;;;4.60;;
15142;SDS011;7672;50.834;6.286;2023-06-19T15:14:40;4.90;;;4.40;;
15142;SDS011;7672;50.834;6.286;2023-06-19T15:17:07;5.15;;;4.40;;
15142;SDS011;7672;50.834;6.286;2023-06-19T15:19:34;4.43;;;4.05;;
15142;SDS011;7672;50.834;6.286;2023-06-19T15:22:02;4.60;;;4.22;;